Terminal Aerodrome Forecast
Issued by NWS Wilmington, OH

Current Version | Previous Version | Graphics & Text | Print | Product List | Glossary On
Versions: 1 2 3 4 5 6 7 8 9 10 11 12 13 14 15 16 17 18 19 20 21 22 23 24 25 26
000
FTUS41 KILN 242003 AAA
TAFCVG
TAF AMD
KCVG 242003Z 2420/2524 10006KT P6SM -SHRA SCT025 OVC050
      TEMPO 2420/2421 2SM -SHRA BR BKN025
     FM242100 07006KT P6SM -SHRA VCTS OVC050CB
      TEMPO 2421/2422 4SM TSRA OVC025CB
     FM242300 08006KT 5SM -SHRA VCTS OVC015CB
     FM250100 31007KT 4SM -SHRA OVC015
     FM250600 29007KT 5SM -SHRA BR OVC008
     FM251700 30011KT P6SM -SHRA OVC015
     FM252100 29011KT P6SM VCSH BKN035=

USA.gov is the U.S. government's official web portal to all federal, state and local government web resources and services.